sensor_id;sensor_type;location;lat;lon;timestamp;P1;durP1;ratioP1;P2;durP2;ratioP2
15645;SDS011;7922;43.622;1.476;2022-12-07T00:01:34;25.30;;;21.47;;
15645;SDS011;7922;43.622;1.476;2022-12-07T00:04:01;27.70;;;23.03;;
15645;SDS011;7922;43.622;1.476;2022-12-07T00:06:28;25.37;;;22.20;;
15645;SDS011;7922;43.622;1.476;2022-12-07T00:08:53;27.97;;;23.53;;
15645;SDS011;7922;43.622;1.476;2022-12-07T00:11:19;26.83;;;23.00;;
15645;SDS011;7922;43.622;1.476;2022-12-07T00:13:46;25.73;;;23.00;;
15645;SDS011;7922;43.622;1.476;2022-12-07T00:16:13;30.00;;;23.37;;
15645;SDS011;7922;43.622;1.476;2022-12-07T00:18:40;27.90;;;22.53;;
15645;SDS011;7922;43.622;1.476;2022-12-07T00:21:07;26.13;;;21.67;;
15645;SDS011;7922;43.622;1.476;2022-12-07T00:23:37;24.97;;;20.63;;
15645;SDS011;7922;43.622;1.476;2022-12-07T00:26:04;24.23;;;20.83;;
15645;SDS011;7922;43.622;1.476;2022-12-07T00:28:37;26.30;;;21.37;;
15645;SDS011;7922;43.622;1.476;2022-12-07T00:31:03;22.50;;;20.03;;
15645;SDS011;7922;43.622;1.476;2022-12-07T00:33:33;24.80;;;21.00;;
15645;SDS011;7922;43.622;1.476;2022-12-07T00:35:58;25.93;;;21.03;;
15645;SDS011;7922;43.622;1.476;2022-12-07T00:38:24;24.43;;;20.43;;
15645;SDS011;7922;43.622;1.476;2022-12-07T00:40:56;24.00;;;20.23;;
15645;SDS011;7922;43.622;1.476;2022-12-07T00:43:32;22.97;;;20.47;;
15645;SDS011;7922;43.622;1.476;2022-12-07T00:45:57;22.57;;;20.20;;
15645;SDS011;7922;43.622;1.476;2022-12-07T00:48:22;25.50;;;20.53;;
15645;SDS011;7922;43.622;1.476;2022-12-07T00:50:48;24.63;;;20.33;;
15645;SDS011;7922;43.622;1.476;2022-12-07T00:53:14;24.43;;;20.00;;
15645;SDS011;7922;43.622;1.476;2022-12-07T00:55:40;22.17;;;19.57;;
15645;SDS011;7922;43.622;1.476;2022-12-07T00:58:05;23.67;;;19.77;;
15645;SDS011;7922;43.622;1.476;2022-12-07T01:00:31;24.80;;;21.07;;
15645;SDS011;7922;43.622;1.476;2022-12-07T01:02:56;23.70;;;20.50;;
15645;SDS011;7922;43.622;1.476;2022-12-07T01:05:22;26.40;;;20.83;;
15645;SDS011;7922;43.622;1.476;2022-12-07T01:07:47;24.00;;;19.70;;
15645;SDS011;7922;43.622;1.476;2022-12-07T01:10:15;24.77;;;20.50;;
15645;SDS011;7922;43.622;1.476;2022-12-07T01:12:40;22.90;;;20.20;;
15645;SDS011;7922;43.622;1.476;2022-12-07T01:15:06;21.70;;;19.40;;
15645;SDS011;7922;43.622;1.476;2022-12-07T01:17:32;23.70;;;19.57;;
15645;SDS011;7922;43.622;1.476;2022-12-07T01:19:58;26.27;;;20.03;;
15645;SDS011;7922;43.622;1.476;2022-12-07T01:22:23;22.47;;;19.00;;
15645;SDS011;7922;43.622;1.476;2022-12-07T01:24:48;23.73;;;19.60;;
15645;SDS011;7922;43.622;1.476;2022-12-07T01:27:13;24.43;;;20.40;;
15645;SDS011;7922;43.622;1.476;2022-12-07T01:29:39;23.43;;;19.03;;
15645;SDS011;7922;43.622;1.476;2022-12-07T01:32:04;25.67;;;20.43;;
15645;SDS011;7922;43.622;1.476;2022-12-07T01:34:30;23.77;;;20.47;;
15645;SDS011;7922;43.622;1.476;2022-12-07T01:36:55;23.67;;;19.53;;
15645;SDS011;7922;43.622;1.476;2022-12-07T01:39:20;25.00;;;20.50;;
15645;SDS011;7922;43.622;1.476;2022-12-07T01:41:46;26.30;;;22.10;;
15645;SDS011;7922;43.622;1.476;2022-12-07T01:44:16;27.63;;;20.07;;
15645;SDS011;7922;43.622;1.476;2022-12-07T01:46:45;28.33;;;20.77;;
15645;SDS011;7922;43.622;1.476;2022-12-07T01:52:01;24.73;;;19.60;;
15645;SDS011;7922;43.622;1.476;2022-12-07T01:54:37;25.70;;;20.53;;
15645;SDS011;7922;43.622;1.476;2022-12-07T01:57:02;26.10;;;20.17;;
15645;SDS011;7922;43.622;1.476;2022-12-07T01:59:28;22.93;;;19.87;;
15645;SDS011;7922;43.622;1.476;2022-12-07T02:01:54;22.57;;;20.13;;
15645;SDS011;7922;43.622;1.476;2022-12-07T02:04:21;24.77;;;20.40;;
15645;SDS011;7922;43.622;1.476;2022-12-07T02:06:47;21.17;;;18.90;;
15645;SDS011;7922;43.622;1.476;2022-12-07T02:09:12;23.43;;;19.20;;
15645;SDS011;7922;43.622;1.476;2022-12-07T02:11:38;23.60;;;20.23;;
15645;SDS011;7922;43.622;1.476;2022-12-07T02:14:03;24.57;;;20.47;;
15645;SDS011;7922;43.622;1.476;2022-12-07T02:29:35;21.80;;;19.00;;
15645;SDS011;7922;43.622;1.476;2022-12-07T02:32:17;23.87;;;19.30;;
15645;SDS011;7922;43.622;1.476;2022-12-07T02:34:58;23.43;;;20.23;;
15645;SDS011;7922;43.622;1.476;2022-12-07T02:37:37;22.60;;;19.37;;
15645;SDS011;7922;43.622;1.476;2022-12-07T02:40:12;24.83;;;20.03;;
15645;SDS011;7922;43.622;1.476;2022-12-07T02:42:42;22.87;;;19.53;;
15645;SDS011;7922;43.622;1.476;2022-12-07T02:45:11;23.20;;;19.07;;
15645;SDS011;7922;43.622;1.476;2022-12-07T02:47:40;22.00;;;18.80;;
15645;SDS011;7922;43.622;1.476;2022-12-07T02:50:06;27.53;;;20.47;;
15645;SDS011;7922;43.622;1.476;2022-12-07T02:52:32;25.67;;;19.80;;
15645;SDS011;7922;43.622;1.476;2022-12-07T02:54:57;21.63;;;19.20;;
15645;SDS011;7922;43.622;1.476;2022-12-07T03:00:17;22.70;;;18.83;;
15645;SDS011;7922;43.622;1.476;2022-12-07T03:11:16;24.60;;;18.70;;
15645;SDS011;7922;43.622;1.476;2022-12-07T03:16:29;23.57;;;18.47;;
15645;SDS011;7922;43.622;1.476;2022-12-07T03:19:07;23.57;;;19.17;;
15645;SDS011;7922;43.622;1.476;2022-12-07T03:21:40;19.90;;;17.40;;
15645;SDS011;7922;43.622;1.476;2022-12-07T03:24:17;21.00;;;18.10;;
15645;SDS011;7922;43.622;1.476;2022-12-07T03:26:47;22.27;;;17.93;;
15645;SDS011;7922;43.622;1.476;2022-12-07T03:29:17;20.63;;;18.23;;
15645;SDS011;7922;43.622;1.476;2022-12-07T03:31:48;19.60;;;17.17;;
15645;SDS011;7922;43.622;1.476;2022-12-07T03:34:24;21.83;;;18.07;;
15645;SDS011;7922;43.622;1.476;2022-12-07T03:36:50;21.37;;;18.10;;
15645;SDS011;7922;43.622;1.476;2022-12-07T03:39:22;22.93;;;18.60;;
15645;SDS011;7922;43.622;1.476;2022-12-07T03:42:09;19.07;;;17.00;;
15645;SDS011;7922;43.622;1.476;2022-12-07T03:44:35;20.50;;;18.43;;
15645;SDS011;7922;43.622;1.476;2022-12-07T03:49:34;23.00;;;18.03;;
15645;SDS011;7922;43.622;1.476;2022-12-07T03:55:24;20.87;;;16.93;;
15645;SDS011;7922;43.622;1.476;2022-12-07T03:57:44;22.20;;;18.13;;
15645;SDS011;7922;43.622;1.476;2022-12-07T04:00:10;21.63;;;17.43;;
15645;SDS011;7922;43.622;1.476;2022-12-07T04:02:36;22.43;;;18.20;;
15645;SDS011;7922;43.622;1.476;2022-12-07T04:05:02;20.17;;;17.23;;
15645;SDS011;7922;43.622;1.476;2022-12-07T04:07:28;22.03;;;18.27;;
15645;SDS011;7922;43.622;1.476;2022-12-07T04:09:53;24.10;;;18.30;;
15645;SDS011;7922;43.622;1.476;2022-12-07T04:12:18;22.50;;;17.93;;
15645;SDS011;7922;43.622;1.476;2022-12-07T04:14:43;19.73;;;17.47;;
15645;SDS011;7922;43.622;1.476;2022-12-07T04:17:09;23.40;;;18.87;;
15645;SDS011;7922;43.622;1.476;2022-12-07T04:19:34;21.23;;;18.07;;
15645;SDS011;7922;43.622;1.476;2022-12-07T04:22:02;22.27;;;18.07;;
15645;SDS011;7922;43.622;1.476;2022-12-07T04:24:30;23.17;;;17.27;;
15645;SDS011;7922;43.622;1.476;2022-12-07T04:26:56;22.90;;;18.57;;
15645;SDS011;7922;43.622;1.476;2022-12-07T04:29:22;19.70;;;17.60;;
15645;SDS011;7922;43.622;1.476;2022-12-07T04:31:47;20.53;;;17.30;;
15645;SDS011;7922;43.622;1.476;2022-12-07T04:34:13;21.63;;;17.77;;
15645;SDS011;7922;43.622;1.476;2022-12-07T04:36:39;18.97;;;17.07;;
15645;SDS011;7922;43.622;1.476;2022-12-07T04:39:05;20.20;;;17.63;;
15645;SDS011;7922;43.622;1.476;2022-12-07T04:41:31;19.97;;;17.27;;
15645;SDS011;7922;43.622;1.476;2022-12-07T04:43:59;22.20;;;17.23;;
15645;SDS011;7922;43.622;1.476;2022-12-07T04:46:25;19.90;;;16.27;;
15645;SDS011;7922;43.622;1.476;2022-12-07T04:48:52;19.87;;;16.90;;
15645;SDS011;7922;43.622;1.476;2022-12-07T04:51:24;23.57;;;17.03;;
15645;SDS011;7922;43.622;1.476;2022-12-07T04:53:51;20.97;;;17.50;;
15645;SDS011;7922;43.622;1.476;2022-12-07T04:56:17;22.40;;;18.07;;
15645;SDS011;7922;43.622;1.476;2022-12-07T04:58:43;21.93;;;17.37;;
15645;SDS011;7922;43.622;1.476;2022-12-07T05:01:10;21.00;;;16.63;;
15645;SDS011;7922;43.622;1.476;2022-12-07T05:03:35;19.10;;;16.90;;
15645;SDS011;7922;43.622;1.476;2022-12-07T05:06:01;21.00;;;16.90;;
15645;SDS011;7922;43.622;1.476;2022-12-07T05:08:26;21.03;;;17.57;;
15645;SDS011;7922;43.622;1.476;2022-12-07T05:10:51;21.57;;;17.70;;
15645;SDS011;7922;43.622;1.476;2022-12-07T05:13:17;20.33;;;16.37;;
15645;SDS011;7922;43.622;1.476;2022-12-07T05:15:42;21.80;;;17.17;;
15645;SDS011;7922;43.622;1.476;2022-12-07T05:18:07;20.83;;;17.47;;
15645;SDS011;7922;43.622;1.476;2022-12-07T05:20:33;21.87;;;17.30;;
15645;SDS011;7922;43.622;1.476;2022-12-07T05:22:58;20.60;;;16.67;;
15645;SDS011;7922;43.622;1.476;2022-12-07T05:25:24;19.40;;;17.40;;
15645;SDS011;7922;43.622;1.476;2022-12-07T05:27:49;22.37;;;17.93;;
15645;SDS011;7922;43.622;1.476;2022-12-07T05:30:14;23.00;;;18.53;;
15645;SDS011;7922;43.622;1.476;2022-12-07T05:32:40;21.50;;;17.33;;
15645;SDS011;7922;43.622;1.476;2022-12-07T05:35:05;20.47;;;16.67;;
15645;SDS011;7922;43.622;1.476;2022-12-07T05:37:31;18.50;;;16.47;;
15645;SDS011;7922;43.622;1.476;2022-12-07T05:39:56;19.97;;;16.50;;
15645;SDS011;7922;43.622;1.476;2022-12-07T05:42:21;19.67;;;17.10;;
15645;SDS011;7922;43.622;1.476;2022-12-07T05:44:46;22.23;;;17.07;;
15645;SDS011;7922;43.622;1.476;2022-12-07T05:47:12;23.87;;;17.93;;
15645;SDS011;7922;43.622;1.476;2022-12-07T05:49:38;24.20;;;18.40;;
15645;SDS011;7922;43.622;1.476;2022-12-07T05:52:03;21.60;;;18.20;;
15645;SDS011;7922;43.622;1.476;2022-12-07T05:54:29;21.47;;;18.03;;
15645;SDS011;7922;43.622;1.476;2022-12-07T05:56:54;22.83;;;17.97;;
15645;SDS011;7922;43.622;1.476;2022-12-07T05:59:20;22.87;;;19.30;;
15645;SDS011;7922;43.622;1.476;2022-12-07T06:01:45;21.50;;;18.87;;
15645;SDS011;7922;43.622;1.476;2022-12-07T06:04:10;21.57;;;18.50;;
15645;SDS011;7922;43.622;1.476;2022-12-07T06:06:36;24.17;;;19.40;;
15645;SDS011;7922;43.622;1.476;2022-12-07T06:09:01;19.23;;;17.07;;
15645;SDS011;7922;43.622;1.476;2022-12-07T06:11:27;25.27;;;19.97;;
15645;SDS011;7922;43.622;1.476;2022-12-07T06:13:52;22.73;;;19.93;;
15645;SDS011;7922;43.622;1.476;2022-12-07T06:16:18;23.03;;;19.07;;
15645;SDS011;7922;43.622;1.476;2022-12-07T06:18:43;23.13;;;20.07;;
15645;SDS011;7922;43.622;1.476;2022-12-07T06:21:08;23.03;;;19.80;;
15645;SDS011;7922;43.622;1.476;2022-12-07T06:23:33;23.60;;;19.30;;
15645;SDS011;7922;43.622;1.476;2022-12-07T06:25:59;22.93;;;19.17;;
15645;SDS011;7922;43.622;1.476;2022-12-07T06:28:24;23.63;;;19.67;;
15645;SDS011;7922;43.622;1.476;2022-12-07T06:30:56;27.37;;;20.37;;
15645;SDS011;7922;43.622;1.476;2022-12-07T06:33:28;21.83;;;19.23;;
15645;SDS011;7922;43.622;1.476;2022-12-07T06:35:53;24.43;;;20.03;;
15645;SDS011;7922;43.622;1.476;2022-12-07T06:38:19;24.33;;;20.20;;
15645;SDS011;7922;43.622;1.476;2022-12-07T06:40:44;23.57;;;19.50;;
15645;SDS011;7922;43.622;1.476;2022-12-07T06:43:09;22.93;;;19.93;;
15645;SDS011;7922;43.622;1.476;2022-12-07T06:45:35;23.23;;;20.30;;
15645;SDS011;7922;43.622;1.476;2022-12-07T06:48:00;24.90;;;19.83;;
15645;SDS011;7922;43.622;1.476;2022-12-07T06:50:25;24.07;;;19.97;;
15645;SDS011;7922;43.622;1.476;2022-12-07T06:52:51;24.80;;;21.27;;
15645;SDS011;7922;43.622;1.476;2022-12-07T06:55:16;24.83;;;22.10;;
15645;SDS011;7922;43.622;1.476;2022-12-07T06:57:41;25.00;;;20.77;;
15645;SDS011;7922;43.622;1.476;2022-12-07T07:00:07;25.50;;;20.63;;
15645;SDS011;7922;43.622;1.476;2022-12-07T07:02:32;25.77;;;21.60;;
15645;SDS011;7922;43.622;1.476;2022-12-07T07:04:58;23.97;;;20.50;;
15645;SDS011;7922;43.622;1.476;2022-12-07T07:07:23;24.27;;;21.70;;
15645;SDS011;7922;43.622;1.476;2022-12-07T07:09:48;28.90;;;23.70;;
15645;SDS011;7922;43.622;1.476;2022-12-07T07:12:13;27.73;;;21.87;;
15645;SDS011;7922;43.622;1.476;2022-12-07T07:14:39;27.73;;;22.07;;
15645;SDS011;7922;43.622;1.476;2022-12-07T07:17:04;27.07;;;23.00;;
15645;SDS011;7922;43.622;1.476;2022-12-07T07:19:29;30.07;;;24.23;;
15645;SDS011;7922;43.622;1.476;2022-12-07T07:21:54;26.10;;;23.00;;
15645;SDS011;7922;43.622;1.476;2022-12-07T07:24:20;25.93;;;22.67;;
15645;SDS011;7922;43.622;1.476;2022-12-07T07:26:45;26.43;;;23.60;;
15645;SDS011;7922;43.622;1.476;2022-12-07T07:29:10;28.40;;;23.10;;
15645;SDS011;7922;43.622;1.476;2022-12-07T07:31:36;30.57;;;23.93;;
15645;SDS011;7922;43.622;1.476;2022-12-07T07:34:01;33.03;;;24.73;;
15645;SDS011;7922;43.622;1.476;2022-12-07T07:36:26;29.20;;;23.40;;
15645;SDS011;7922;43.622;1.476;2022-12-07T07:38:51;29.07;;;23.03;;
15645;SDS011;7922;43.622;1.476;2022-12-07T07:41:17;25.27;;;22.40;;
15645;SDS011;7922;43.622;1.476;2022-12-07T07:43:42;30.93;;;23.90;;
15645;SDS011;7922;43.622;1.476;2022-12-07T07:46:07;29.00;;;24.20;;
15645;SDS011;7922;43.622;1.476;2022-12-07T07:48:32;27.70;;;22.53;;
15645;SDS011;7922;43.622;1.476;2022-12-07T07:50:58;28.27;;;22.10;;
15645;SDS011;7922;43.622;1.476;2022-12-07T07:53:23;27.20;;;23.00;;
15645;SDS011;7922;43.622;1.476;2022-12-07T07:55:54;29.00;;;23.47;;
15645;SDS011;7922;43.622;1.476;2022-12-07T07:58:20;28.43;;;24.20;;
15645;SDS011;7922;43.622;1.476;2022-12-07T08:00:46;35.10;;;26.80;;
15645;SDS011;7922;43.622;1.476;2022-12-07T08:03:11;41.87;;;31.40;;
15645;SDS011;7922;43.622;1.476;2022-12-07T08:05:36;38.37;;;29.93;;
15645;SDS011;7922;43.622;1.476;2022-12-07T08:08:02;34.63;;;28.67;;
15645;SDS011;7922;43.622;1.476;2022-12-07T08:10:28;37.83;;;28.20;;
15645;SDS011;7922;43.622;1.476;2022-12-07T08:12:53;34.57;;;27.17;;
15645;SDS011;7922;43.622;1.476;2022-12-07T08:15:18;35.67;;;29.30;;
15645;SDS011;7922;43.622;1.476;2022-12-07T08:17:43;29.47;;;24.63;;
15645;SDS011;7922;43.622;1.476;2022-12-07T08:20:09;32.23;;;26.17;;
15645;SDS011;7922;43.622;1.476;2022-12-07T08:22:34;32.73;;;26.37;;
15645;SDS011;7922;43.622;1.476;2022-12-07T08:24:59;35.13;;;26.43;;
15645;SDS011;7922;43.622;1.476;2022-12-07T08:27:25;29.33;;;24.93;;
15645;SDS011;7922;43.622;1.476;2022-12-07T08:29:50;30.00;;;24.23;;
15645;SDS011;7922;43.622;1.476;2022-12-07T08:32:15;29.50;;;24.60;;
15645;SDS011;7922;43.622;1.476;2022-12-07T08:34:40;26.63;;;23.80;;
15645;SDS011;7922;43.622;1.476;2022-12-07T08:37:06;27.43;;;23.00;;
15645;SDS011;7922;43.622;1.476;2022-12-07T08:39:31;28.23;;;23.93;;
15645;SDS011;7922;43.622;1.476;2022-12-07T08:41:56;27.40;;;23.53;;
15645;SDS011;7922;43.622;1.476;2022-12-07T08:44:22;26.17;;;22.70;;
15645;SDS011;7922;43.622;1.476;2022-12-07T08:46:51;30.37;;;23.70;;
15645;SDS011;7922;43.622;1.476;2022-12-07T08:49:26;27.50;;;21.97;;
15645;SDS011;7922;43.622;1.476;2022-12-07T08:51:56;27.90;;;22.73;;
15645;SDS011;7922;43.622;1.476;2022-12-07T08:54:21;23.37;;;20.73;;
15645;SDS011;7922;43.622;1.476;2022-12-07T08:56:47;25.60;;;22.30;;
15645;SDS011;7922;43.622;1.476;2022-12-07T08:59:13;25.27;;;21.13;;
15645;SDS011;7922;43.622;1.476;2022-12-07T09:01:39;26.53;;;23.47;;
15645;SDS011;7922;43.622;1.476;2022-12-07T09:04:05;29.47;;;22.67;;
15645;SDS011;7922;43.622;1.476;2022-12-07T09:06:30;24.47;;;21.87;;
15645;SDS011;7922;43.622;1.476;2022-12-07T09:08:56;26.70;;;21.50;;
15645;SDS011;7922;43.622;1.476;2022-12-07T09:11:23;26.17;;;21.77;;
15645;SDS011;7922;43.622;1.476;2022-12-07T09:13:48;23.40;;;20.47;;
15645;SDS011;7922;43.622;1.476;2022-12-07T09:16:14;23.87;;;19.93;;
15645;SDS011;7922;43.622;1.476;2022-12-07T09:18:39;18.50;;;16.60;;
15645;SDS011;7922;43.622;1.476;2022-12-07T09:21:04;18.33;;;15.50;;
15645;SDS011;7922;43.622;1.476;2022-12-07T09:23:29;18.47;;;15.83;;
15645;SDS011;7922;43.622;1.476;2022-12-07T09:25:58;18.07;;;15.87;;
15645;SDS011;7922;43.622;1.476;2022-12-07T09:28:24;19.27;;;16.00;;
15645;SDS011;7922;43.622;1.476;2022-12-07T09:30:49;18.20;;;16.30;;
15645;SDS011;7922;43.622;1.476;2022-12-07T09:33:15;22.43;;;17.47;;
15645;SDS011;7922;43.622;1.476;2022-12-07T09:35:50;20.90;;;18.50;;
15645;SDS011;7922;43.622;1.476;2022-12-07T09:38:16;21.43;;;19.33;;
15645;SDS011;7922;43.622;1.476;2022-12-07T09:40:42;20.10;;;17.63;;
15645;SDS011;7922;43.622;1.476;2022-12-07T09:43:12;21.30;;;17.27;;
15645;SDS011;7922;43.622;1.476;2022-12-07T09:45:38;15.33;;;13.73;;
15645;SDS011;7922;43.622;1.476;2022-12-07T09:48:04;14.80;;;13.20;;
15645;SDS011;7922;43.622;1.476;2022-12-07T09:50:30;16.47;;;14.63;;
15645;SDS011;7922;43.622;1.476;2022-12-07T09:53:01;19.90;;;15.47;;
15645;SDS011;7922;43.622;1.476;2022-12-07T09:55:34;15.87;;;14.33;;
15645;SDS011;7922;43.622;1.476;2022-12-07T09:58:01;18.40;;;15.80;;
15645;SDS011;7922;43.622;1.476;2022-12-07T10:00:26;17.67;;;15.47;;
15645;SDS011;7922;43.622;1.476;2022-12-07T10:02:55;21.13;;;15.50;;
15645;SDS011;7922;43.622;1.476;2022-12-07T10:05:44;21.77;;;16.73;;
15645;SDS011;7922;43.622;1.476;2022-12-07T10:08:12;15.63;;;13.93;;
15645;SDS011;7922;43.622;1.476;2022-12-07T10:10:38;15.07;;;13.53;;
15645;SDS011;7922;43.622;1.476;2022-12-07T10:13:05;13.67;;;12.37;;
15645;SDS011;7922;43.622;1.476;2022-12-07T10:20:47;14.73;;;12.80;;
15645;SDS011;7922;43.622;1.476;2022-12-07T10:23:16;14.57;;;13.07;;
15645;SDS011;7922;43.622;1.476;2022-12-07T10:25:42;13.43;;;12.13;;
15645;SDS011;7922;43.622;1.476;2022-12-07T10:30:33;13.07;;;11.77;;
15645;SDS011;7922;43.622;1.476;2022-12-07T10:33:34;13.73;;;12.33;;
15645;SDS011;7922;43.622;1.476;2022-12-07T10:36:38;12.33;;;11.13;;
15645;SDS011;7922;43.622;1.476;2022-12-07T10:39:15;13.80;;;11.13;;
15645;SDS011;7922;43.622;1.476;2022-12-07T10:41:52;12.13;;;10.20;;
15645;SDS011;7922;43.622;1.476;2022-12-07T10:44:28;10.30;;;8.90;;
15645;SDS011;7922;43.622;1.476;2022-12-07T10:55:33;12.30;;;11.07;;
15645;SDS011;7922;43.622;1.476;2022-12-07T11:06:43;12.63;;;10.17;;
15645;SDS011;7922;43.622;1.476;2022-12-07T11:12:16;12.03;;;10.70;;
15645;SDS011;7922;43.622;1.476;2022-12-07T11:20:27;11.30;;;10.10;;
15645;SDS011;7922;43.622;1.476;2022-12-07T11:23:04;10.60;;;9.50;;
15645;SDS011;7922;43.622;1.476;2022-12-07T11:34:15;14.17;;;12.67;;
15645;SDS011;7922;43.622;1.476;2022-12-07T11:36:53;14.93;;;12.40;;
15645;SDS011;7922;43.622;1.476;2022-12-07T11:39:25;31.87;;;12.50;;
15645;SDS011;7922;43.622;1.476;2022-12-07T11:41:56;11.87;;;10.67;;
15645;SDS011;7922;43.622;1.476;2022-12-07T11:44:27;13.20;;;11.50;;
15645;SDS011;7922;43.622;1.476;2022-12-07T11:46:58;12.03;;;10.73;;
15645;SDS011;7922;43.622;1.476;2022-12-07T11:51:57;12.90;;;11.43;;
15645;SDS011;7922;43.622;1.476;2022-12-07T11:54:28;13.43;;;11.50;;
15645;SDS011;7922;43.622;1.476;2022-12-07T11:56:56;11.37;;;10.03;;
15645;SDS011;7922;43.622;1.476;2022-12-07T11:59:36;12.40;;;11.20;;
15645;SDS011;7922;43.622;1.476;2022-12-07T12:02:14;13.00;;;10.70;;
15645;SDS011;7922;43.622;1.476;2022-12-07T12:07:28;11.80;;;10.47;;
15645;SDS011;7922;43.622;1.476;2022-12-07T12:09:58;11.63;;;10.03;;
15645;SDS011;7922;43.622;1.476;2022-12-07T12:21:00;11.50;;;9.20;;
15645;SDS011;7922;43.622;1.476;2022-12-07T12:23:34;10.67;;;9.50;;
15645;SDS011;7922;43.622;1.476;2022-12-07T12:26:13;11.20;;;8.53;;
15645;SDS011;7922;43.622;1.476;2022-12-07T12:28:49;9.37;;;8.37;;
15645;SDS011;7922;43.622;1.476;2022-12-07T12:31:33;9.37;;;8.47;;
15645;SDS011;7922;43.622;1.476;2022-12-07T12:34:04;9.00;;;8.10;;
15645;SDS011;7922;43.622;1.476;2022-12-07T12:36:49;8.90;;;7.80;;
15645;SDS011;7922;43.622;1.476;2022-12-07T12:39:18;8.37;;;7.23;;
15645;SDS011;7922;43.622;1.476;2022-12-07T12:51:53;8.57;;;7.67;;
15645;SDS011;7922;43.622;1.476;2022-12-07T12:54:21;9.33;;;8.43;;
15645;SDS011;7922;43.622;1.476;2022-12-07T12:59:28;9.13;;;7.83;;
15645;SDS011;7922;43.622;1.476;2022-12-07T13:02:10;8.67;;;7.73;;
15645;SDS011;7922;43.622;1.476;2022-12-07T13:12:58;7.00;;;6.33;;
15645;SDS011;7922;43.622;1.476;2022-12-07T13:20:56;9.27;;;6.87;;
15645;SDS011;7922;43.622;1.476;2022-12-07T13:24:07;7.13;;;6.33;;
15645;SDS011;7922;43.622;1.476;2022-12-07T13:31:34;6.87;;;5.47;;
15645;SDS011;7922;43.622;1.476;2022-12-07T13:37:01;7.67;;;6.70;;
15645;SDS011;7922;43.622;1.476;2022-12-07T13:39:32;7.63;;;6.57;;
15645;SDS011;7922;43.622;1.476;2022-12-07T13:41:58;7.33;;;6.53;;
15645;SDS011;7922;43.622;1.476;2022-12-07T13:44:24;7.53;;;6.13;;
15645;SDS011;7922;43.622;1.476;2022-12-07T13:49:33;7.23;;;6.53;;
15645;SDS011;7922;43.622;1.476;2022-12-07T13:57:25;8.00;;;7.30;;
15645;SDS011;7922;43.622;1.476;2022-12-07T13:59:51;6.53;;;5.97;;
15645;SDS011;7922;43.622;1.476;2022-12-07T14:02:20;7.60;;;6.60;;
15645;SDS011;7922;43.622;1.476;2022-12-07T14:04:49;7.83;;;6.00;;
15645;SDS011;7922;43.622;1.476;2022-12-07T14:07:23;7.37;;;6.67;;
15645;SDS011;7922;43.622;1.476;2022-12-07T14:09:55;7.23;;;6.63;;
15645;SDS011;7922;43.622;1.476;2022-12-07T14:12:25;8.37;;;7.07;;
15645;SDS011;7922;43.622;1.476;2022-12-07T14:14:51;7.50;;;6.80;;
15645;SDS011;7922;43.622;1.476;2022-12-07T14:17:17;7.73;;;6.93;;
15645;SDS011;7922;43.622;1.476;2022-12-07T14:25:00;9.03;;;8.13;;
15645;SDS011;7922;43.622;1.476;2022-12-07T14:27:30;8.77;;;7.80;;
15645;SDS011;7922;43.622;1.476;2022-12-07T14:29:58;9.47;;;8.53;;
15645;SDS011;7922;43.622;1.476;2022-12-07T14:32:25;11.33;;;7.97;;
15645;SDS011;7922;43.622;1.476;2022-12-07T14:34:59;11.63;;;8.23;;
15645;SDS011;7922;43.622;1.476;2022-12-07T14:37:26;17.33;;;8.73;;
15645;SDS011;7922;43.622;1.476;2022-12-07T14:39:52;9.23;;;8.20;;
15645;SDS011;7922;43.622;1.476;2022-12-07T14:42:18;8.50;;;7.70;;
15645;SDS011;7922;43.622;1.476;2022-12-07T14:44:44;11.43;;;8.80;;
15645;SDS011;7922;43.622;1.476;2022-12-07T14:47:10;10.13;;;8.23;;
15645;SDS011;7922;43.622;1.476;2022-12-07T14:49:35;9.00;;;7.20;;
15645;SDS011;7922;43.622;1.476;2022-12-07T14:52:00;8.80;;;7.33;;
15645;SDS011;7922;43.622;1.476;2022-12-07T14:54:26;9.07;;;8.10;;
15645;SDS011;7922;43.622;1.476;2022-12-07T14:56:55;7.87;;;6.87;;
15645;SDS011;7922;43.622;1.476;2022-12-07T14:59:21;7.70;;;6.90;;
15645;SDS011;7922;43.622;1.476;2022-12-07T15:01:46;8.87;;;7.50;;
15645;SDS011;7922;43.622;1.476;2022-12-07T15:04:11;11.40;;;9.20;;
15645;SDS011;7922;43.622;1.476;2022-12-07T15:06:37;8.77;;;7.70;;
15645;SDS011;7922;43.622;1.476;2022-12-07T15:09:02;7.70;;;6.90;;
15645;SDS011;7922;43.622;1.476;2022-12-07T15:11:28;9.83;;;6.60;;
15645;SDS011;7922;43.622;1.476;2022-12-07T15:13:53;9.27;;;7.20;;
15645;SDS011;7922;43.622;1.476;2022-12-07T15:16:19;7.43;;;6.50;;
15645;SDS011;7922;43.622;1.476;2022-12-07T15:18:44;7.90;;;7.10;;
15645;SDS011;7922;43.622;1.476;2022-12-07T15:21:14;8.80;;;7.03;;
15645;SDS011;7922;43.622;1.476;2022-12-07T15:23:39;8.33;;;7.23;;
15645;SDS011;7922;43.622;1.476;2022-12-07T15:26:05;7.90;;;7.10;;
15645;SDS011;7922;43.622;1.476;2022-12-07T15:28:30;9.63;;;7.20;;
15645;SDS011;7922;43.622;1.476;2022-12-07T15:30:55;7.67;;;6.87;;
15645;SDS011;7922;43.622;1.476;2022-12-07T15:33:20;9.53;;;7.90;;
15645;SDS011;7922;43.622;1.476;2022-12-07T15:35:46;9.50;;;7.53;;
15645;SDS011;7922;43.622;1.476;2022-12-07T15:38:11;10.87;;;6.90;;
15645;SDS011;7922;43.622;1.476;2022-12-07T15:40:36;7.77;;;6.33;;
15645;SDS011;7922;43.622;1.476;2022-12-07T15:43:02;6.93;;;5.40;;
15645;SDS011;7922;43.622;1.476;2022-12-07T15:45:28;6.37;;;5.60;;
15645;SDS011;7922;43.622;1.476;2022-12-07T15:47:53;9.20;;;7.57;;
15645;SDS011;7922;43.622;1.476;2022-12-07T15:50:18;10.37;;;7.93;;
15645;SDS011;7922;43.622;1.476;2022-12-07T15:52:43;7.30;;;6.60;;
15645;SDS011;7922;43.622;1.476;2022-12-07T15:55:09;7.70;;;6.90;;
15645;SDS011;7922;43.622;1.476;2022-12-07T15:57:35;8.73;;;6.93;;
15645;SDS011;7922;43.622;1.476;2022-12-07T16:00:02;7.80;;;6.53;;
15645;SDS011;7922;43.622;1.476;2022-12-07T16:02:28;9.27;;;6.40;;
15645;SDS011;7922;43.622;1.476;2022-12-07T16:04:53;7.87;;;6.70;;
15645;SDS011;7922;43.622;1.476;2022-12-07T16:07:18;7.53;;;6.30;;
15645;SDS011;7922;43.622;1.476;2022-12-07T16:09:44;7.00;;;5.90;;
15645;SDS011;7922;43.622;1.476;2022-12-07T16:12:10;8.33;;;6.60;;
15645;SDS011;7922;43.622;1.476;2022-12-07T16:14:37;9.83;;;6.33;;
15645;SDS011;7922;43.622;1.476;2022-12-07T16:17:02;8.47;;;6.60;;
15645;SDS011;7922;43.622;1.476;2022-12-07T16:19:28;12.20;;;6.47;;
15645;SDS011;7922;43.622;1.476;2022-12-07T16:21:53;9.93;;;6.53;;
15645;SDS011;7922;43.622;1.476;2022-12-07T16:24:18;12.50;;;6.60;;
15645;SDS011;7922;43.622;1.476;2022-12-07T16:26:44;10.50;;;6.77;;
15645;SDS011;7922;43.622;1.476;2022-12-07T16:29:13;7.43;;;6.10;;
15645;SDS011;7922;43.622;1.476;2022-12-07T16:31:38;7.80;;;6.67;;
15645;SDS011;7922;43.622;1.476;2022-12-07T16:34:04;9.77;;;6.93;;
15645;SDS011;7922;43.622;1.476;2022-12-07T16:36:29;9.47;;;7.43;;
15645;SDS011;7922;43.622;1.476;2022-12-07T16:38:55;7.73;;;6.93;;
15645;SDS011;7922;43.622;1.476;2022-12-07T16:41:20;10.20;;;6.73;;
15645;SDS011;7922;43.622;1.476;2022-12-07T16:43:45;11.90;;;7.40;;
15645;SDS011;7922;43.622;1.476;2022-12-07T16:46:10;9.87;;;6.47;;
15645;SDS011;7922;43.622;1.476;2022-12-07T16:48:36;10.57;;;6.67;;
15645;SDS011;7922;43.622;1.476;2022-12-07T16:51:03;12.97;;;7.00;;
15645;SDS011;7922;43.622;1.476;2022-12-07T16:53:33;7.50;;;6.60;;
15645;SDS011;7922;43.622;1.476;2022-12-07T16:55:58;9.17;;;6.97;;
15645;SDS011;7922;43.622;1.476;2022-12-07T16:58:23;7.90;;;6.67;;
15645;SDS011;7922;43.622;1.476;2022-12-07T17:00:49;7.83;;;6.30;;
15645;SDS011;7922;43.622;1.476;2022-12-07T17:03:14;8.30;;;6.97;;